Aérodrome :
LOGIN :

S'inscrire | Disclaimer

   EN    FR    IT 

 










Légende :    VFR   VFR Marginal   IFR   IFR Intensif   IFR Très Intensif
Visi : 
Plafond : 
>= 8 km
>= 3000ft
5 à 8 km
1000 à 3000 ft
1500m à 5 km
500 à 1000 ft
800 à 1500m
200 à 500 ft
< 800m
< 200 ft
Symboles :   Orages  Brouillard  Fortes neiges  Fortes précipitations  Vent > 20 kt
SIGMETs :   Divers  Orages  Givrage  Turbulence  Onde Orograph.  Cendres Volcan.







- Altitude de l'aérodrome : 1504 ft
- Code IATA : PNA


LEPP - Noain Pamplona

DERNIER METAR :
  • 250930Z 33005KT 230V020 CAVOK 25/13 Q1018

METARs EXPIRÉS :
  • 250900Z 34006KT 300V020 CAVOK 24/13 Q1018
  • 250830Z 33004KT 280V030 CAVOK 24/13 Q1018
  • 250800Z 35002KT CAVOK 22/15 Q1018
  • 250730Z 00000KT CAVOK 21/13 Q1018
  • 250700Z VRB01KT CAVOK 20/13 Q1018

TAF TAF LEPP
Valide du 25 à 09h jusqu'au 26 à 09h UTC


250800Z 2509/2609 34007KT CAVOK TX30/2514Z TN14/2605Z
Pas de NOTAMs connus pour ce terrain.
1 SIGMET publié pour la FIR Madrid (LECM) :
 
Orages noyés dans la masse
LECM SIGMET 4 VALID 250900/251100 LEVA
LECM MADRID FIR/UIR EMBD TS OBS AT 0850Z WI N4410 W013 - N44 W01030 - N4450 W00950 - N45 W013 - N4410 W013 TOP FL350 MOV NW 20KT NC=



MET'MAP, la Météo Aéronautique d'un coup d'oeil ! - Copyright ORBIFLY Décembre 2007 - Disclaimer

ORBIFLY MET'MAP TEAM :

Programmation & Développement : Alexandra Zaïnal
Conception & Développement : Baudouin d'Aumeries
Co-Programmation & Développement : Marc-Olivier Méhu
Soutien technique & logistique : Manuel Goepfert

Contact : metmap@orbifly.com




SOURCES & CREDITS :

   NOAA